Melville, MT (59055)

9:32 AM MST on November 23, 2014 (GMT -0700)
S. Boulder-McKenzie Flats | Change Station
CLOSE
Current Station
Personal Weather Station
Location: Big Timber, MT
Elevation: 4840 ft
Nearby Weather Stations

Elev 4840 ft 45.75 °N, 109.96 °W | Updated 5 seconds ago

Mostly Cloudy
Mostly Cloudy
32.6 °F
Feels Like 19 °F
N
26.5
Wind Variable Wind from West
Gusts 26.5 mph

Today
High -- | Low -- °F
--% Chance of Precip.
Yesterday
High -- | Low -- °F
Precip. -- in
7:31 AM 4:40 PM
New Moon, 2% visible
Pressure 30.00 in
Visibility 10.0 miles
Clouds Overcast 9000 ft
Windchill 19 °F
Dew Point 23 °F
Humidity 67%
Rainfall 0.00 in
Snow Depth Not available.
UV 0 out of 12
Pollen .10 out of 12
Air Quality Not available.
Flu Activity Not available.
METAR KLVM 231553Z AUTO 26016G26KT 10SM OVC090 00/M06 A2994 RMK AO2 PK WND 26027/1528 SLP159 T00001056

More Conditions Fewer Conditions

Pressure 30.00 in
Visibility 10.0 miles
Clouds Overcast 9000 ft
Windchill 19 °F
Dew Point 23 °F
Humidity 67%
Rainfall 0.00 in
Snow Depth Not available.
UV 0 out of 12
Pollen .10 out of 12
Air Quality Not available.
Flu Activity Not available.
METAR KLVM 231553Z AUTO 26016G26KT 10SM OVC090 00/M06 A2994 RMK AO2 PK WND 26027/1528 SLP159 T00001056

More Conditions Fewer Conditions

10-Day Weather Forecast

Almanac

Astronomy

Nov. 23, 2014 Rise Set
Actual Time
Civil Twilight
Nautical Twilight
Astronomical Twilight
Moon
Length of Visible Light
Length of Day
Tomorrow will be .
, % of the Moon is Illuminated

Today's Extremes

State Highs State Lows

Community

WunderPhotos

Upload Photos

1,773,092 photos uploaded!

WunderBlogs® & News

Nearby

Air Quality

  Air Quality AQ Index Pollutant
Not available.

Snow Depth

Station Depth Elevation

Earthquake Activity

City Distance Mag. Time & Date
Minimum magnitude displayed is 2.5.

Coastal Water Temperatures

Place Temperature

Nearby Weather Stations